sensor_id;sensor_type;location;lat;lon;timestamp;pressure;altitude;pressure_sealevel;temperature;humidity
28648;BME280;17137;51.494;-0.262;2023-07-13T00:00:07;50061.52;;;-145.72;78.90
28648;BME280;17137;51.494;-0.262;2023-07-13T00:00:38;50059.18;;;-145.72;79.12
28648;BME280;17137;51.494;-0.262;2023-07-13T00:01:08;50065.34;;;-145.72;79.02
28648;BME280;17137;51.494;-0.262;2023-07-13T00:01:39;50065.96;;;-145.72;78.73
28648;BME280;17137;51.494;-0.262;2023-07-13T00:02:09;50061.28;;;-145.72;78.47
28648;BME280;17137;51.494;-0.262;2023-07-13T00:02:40;50068.79;;;-145.72;79.62
28648;BME280;17137;51.494;-0.262;2023-07-13T00:03:10;50062.75;;;-145.72;79.43
28648;BME280;17137;51.494;-0.262;2023-07-13T00:03:40;50063.00;;;-145.72;79.29
28648;BME280;17137;51.494;-0.262;2023-07-13T00:04:11;50058.07;;;-145.72;79.08
28648;BME280;17137;51.494;-0.262;2023-07-13T00:04:41;50071.51;;;-145.72;78.99
28648;BME280;17137;51.494;-0.262;2023-07-13T00:05:12;50056.84;;;-145.72;79.05
28648;BME280;17137;51.494;-0.262;2023-07-13T00:05:42;50064.48;;;-145.72;79.37
28648;BME280;17137;51.494;-0.262;2023-07-13T00:06:13;50070.40;;;-145.72;79.67
28648;BME280;17137;51.494;-0.262;2023-07-13T00:06:43;50083.59;;;-145.72;79.90
28648;BME280;17137;51.494;-0.262;2023-07-13T00:07:14;50063.37;;;-145.72;79.57
28648;BME280;17137;51.494;-0.262;2023-07-13T00:07:44;50059.80;;;-145.72;78.98
28648;BME280;17137;51.494;-0.262;2023-07-13T00:08:14;50064.11;;;-145.72;78.77
28648;BME280;17137;51.494;-0.262;2023-07-13T00:08:45;50073.85;;;-145.72;79.24
28648;BME280;17137;51.494;-0.262;2023-07-13T00:09:16;50081.49;;;-145.72;79.20
28648;BME280;17137;51.494;-0.262;2023-07-13T00:09:47;50072.12;;;-145.72;79.09
28648;BME280;17137;51.494;-0.262;2023-07-13T00:10:18;50076.31;;;-145.72;79.12
28648;BME280;17137;51.494;-0.262;2023-07-13T00:10:48;50082.48;;;-145.72;79.38
28648;BME280;17137;51.494;-0.262;2023-07-13T00:11:21;50080.01;;;-145.72;79.77
28648;BME280;17137;51.494;-0.262;2023-07-13T00:11:53;50081.86;;;-145.72;79.53
28648;BME280;17137;51.494;-0.262;2023-07-13T00:12:26;50069.16;;;-145.72;79.09
28648;BME280;17137;51.494;-0.262;2023-07-13T00:12:57;50072.12;;;-145.72;78.98
28648;BME280;17137;51.494;-0.262;2023-07-13T00:13:28;50062.26;;;-145.72;79.01
28648;BME280;17137;51.494;-0.262;2023-07-13T00:13:58;50077.05;;;-145.72;79.02
28648;BME280;17137;51.494;-0.262;2023-07-13T00:14:29;50076.07;;;-145.72;78.85
28648;BME280;17137;51.494;-0.262;2023-07-13T00:15:02;50067.93;;;-145.72;78.88
28648;BME280;17137;51.494;-0.262;2023-07-13T00:15:45;50068.67;;;-145.72;78.66
28648;BME280;17137;51.494;-0.262;2023-07-13T00:16:16;50071.63;;;-145.72;78.68
28648;BME280;17137;51.494;-0.262;2023-07-13T00:16:51;50077.18;;;-145.72;78.72
28648;BME280;17137;51.494;-0.262;2023-07-13T00:17:22;50064.36;;;-145.72;78.55
28648;BME280;17137;51.494;-0.262;2023-07-13T00:17:57;50070.03;;;-145.72;78.60
28648;BME280;17137;51.494;-0.262;2023-07-13T00:18:28;50071.38;;;-145.72;78.73
28648;BME280;17137;51.494;-0.262;2023-07-13T00:18:58;50072.25;;;-145.72;78.94
28648;BME280;17137;51.494;-0.262;2023-07-13T00:19:28;50070.64;;;-145.72;79.10
28648;BME280;17137;51.494;-0.262;2023-07-13T00:19:59;50075.94;;;-145.72;78.90
28648;BME280;17137;51.494;-0.262;2023-07-13T00:20:29;50078.16;;;-145.72;78.46
28648;BME280;17137;51.494;-0.262;2023-07-13T00:21:00;50079.15;;;-145.72;78.31
28648;BME280;17137;51.494;-0.262;2023-07-13T00:21:30;50071.75;;;-145.72;78.14
28648;BME280;17137;51.494;-0.262;2023-07-13T00:22:00;50081.49;;;-145.72;78.44
28648;BME280;17137;51.494;-0.262;2023-07-13T00:22:31;50076.56;;;-145.72;78.35
28648;BME280;17137;51.494;-0.262;2023-07-13T00:23:01;50076.19;;;-145.72;78.27
28648;BME280;17137;51.494;-0.262;2023-07-13T00:23:32;50076.44;;;-145.72;78.36
28648;BME280;17137;51.494;-0.262;2023-07-13T00:24:02;50078.66;;;-145.72;78.56
28648;BME280;17137;51.494;-0.262;2023-07-13T00:24:33;50069.78;;;-145.72;78.50
28648;BME280;17137;51.494;-0.262;2023-07-13T00:25:05;50079.03;;;-145.72;78.20
28648;BME280;17137;51.494;-0.262;2023-07-13T00:25:35;50083.83;;;-145.72;78.31
28648;BME280;17137;51.494;-0.262;2023-07-13T00:26:08;50080.13;;;-145.72;78.29
28648;BME280;17137;51.494;-0.262;2023-07-13T00:26:40;50075.70;;;-145.72;77.77
28648;BME280;17137;51.494;-0.262;2023-07-13T00:27:11;50076.93;;;-145.72;77.54
28648;BME280;17137;51.494;-0.262;2023-07-13T00:27:42;50068.05;;;-145.72;77.05
28648;BME280;17137;51.494;-0.262;2023-07-13T00:28:13;50079.15;;;-145.72;76.97
28648;BME280;17137;51.494;-0.262;2023-07-13T00:28:43;50073.60;;;-145.72;76.70
28648;BME280;17137;51.494;-0.262;2023-07-13T00:29:13;50072.00;;;-145.72;76.74
28648;BME280;17137;51.494;-0.262;2023-07-13T00:29:44;50084.33;;;-145.72;77.05
28648;BME280;17137;51.494;-0.262;2023-07-13T00:30:14;50083.83;;;-145.72;77.09
28648;BME280;17137;51.494;-0.262;2023-07-13T00:30:45;50078.41;;;-145.72;77.13
28648;BME280;17137;51.494;-0.262;2023-07-13T00:31:15;50074.59;;;-145.72;76.87
28648;BME280;17137;51.494;-0.262;2023-07-13T00:31:45;50082.35;;;-145.72;77.23
28648;BME280;17137;51.494;-0.262;2023-07-13T00:32:16;50084.45;;;-145.72;77.38
28648;BME280;17137;51.494;-0.262;2023-07-13T00:32:46;50082.23;;;-145.72;77.10
28648;BME280;17137;51.494;-0.262;2023-07-13T00:33:16;50081.98;;;-145.72;76.97
28648;BME280;17137;51.494;-0.262;2023-07-13T00:33:47;50077.42;;;-145.72;76.81
28648;BME280;17137;51.494;-0.262;2023-07-13T00:34:17;50090.49;;;-145.72;77.02
28648;BME280;17137;51.494;-0.262;2023-07-13T00:34:47;50090.98;;;-145.72;77.08
28648;BME280;17137;51.494;-0.262;2023-07-13T00:35:17;50091.60;;;-145.72;77.16
28648;BME280;17137;51.494;-0.262;2023-07-13T00:35:48;50089.75;;;-145.72;77.36
28648;BME280;17137;51.494;-0.262;2023-07-13T00:36:19;50080.01;;;-145.72;77.20
28648;BME280;17137;51.494;-0.262;2023-07-13T00:36:50;50082.23;;;-145.72;77.12
28648;BME280;17137;51.494;-0.262;2023-07-13T00:37:20;50069.78;;;-145.72;77.00
28648;BME280;17137;51.494;-0.262;2023-07-13T00:37:50;50080.13;;;-145.72;76.41
28648;BME280;17137;51.494;-0.262;2023-07-13T00:38:21;50076.56;;;-145.72;76.20
28648;BME280;17137;51.494;-0.262;2023-07-13T00:38:51;50080.13;;;-145.72;76.22
28648;BME280;17137;51.494;-0.262;2023-07-13T00:39:22;50085.19;;;-145.72;76.13
28648;BME280;17137;51.494;-0.262;2023-07-13T00:39:52;50088.39;;;-145.72;75.95
28648;BME280;17137;51.494;-0.262;2023-07-13T00:40:22;50073.72;;;-145.72;75.68
28648;BME280;17137;51.494;-0.262;2023-07-13T00:40:53;50072.49;;;-145.72;75.81
28648;BME280;17137;51.494;-0.262;2023-07-13T00:41:23;50069.29;;;-145.72;75.68
28648;BME280;17137;51.494;-0.262;2023-07-13T00:41:54;50079.76;;;-145.72;75.88
28648;BME280;17137;51.494;-0.262;2023-07-13T00:42:24;50085.43;;;-145.72;76.19
28648;BME280;17137;51.494;-0.262;2023-07-13T00:42:57;50087.28;;;-145.72;75.86
28648;BME280;17137;51.494;-0.262;2023-07-13T00:43:29;50084.20;;;-145.72;75.98
28648;BME280;17137;51.494;-0.262;2023-07-13T00:44:04;50072.25;;;-145.72;75.73
28648;BME280;17137;51.494;-0.262;2023-07-13T00:44:35;50077.30;;;-145.72;75.69
28648;BME280;17137;51.494;-0.262;2023-07-13T00:46:18;50074.71;;;-145.72;75.63
28648;BME280;17137;51.494;-0.262;2023-07-13T00:46:49;50083.09;;;-145.72;75.44
28648;BME280;17137;51.494;-0.262;2023-07-13T00:47:19;50093.45;;;-145.72;75.80
28648;BME280;17137;51.494;-0.262;2023-07-13T00:47:49;50079.03;;;-145.72;75.65
28648;BME280;17137;51.494;-0.262;2023-07-13T00:48:21;50076.07;;;-145.72;75.55
28648;BME280;17137;51.494;-0.262;2023-07-13T00:48:56;50074.96;;;-145.72;75.81
28648;BME280;17137;51.494;-0.262;2023-07-13T00:49:30;50085.43;;;-145.72;75.77
28648;BME280;17137;51.494;-0.262;2023-07-13T00:50:02;50095.91;;;-145.72;75.94
28648;BME280;17137;51.494;-0.262;2023-07-13T00:50:34;50099.49;;;-145.72;76.15
28648;BME280;17137;51.494;-0.262;2023-07-13T00:51:05;50079.03;;;-145.72;75.92
28648;BME280;17137;51.494;-0.262;2023-07-13T00:51:39;50081.00;;;-145.72;75.56
28648;BME280;17137;51.494;-0.262;2023-07-13T00:52:10;50093.69;;;-145.72;75.86
28648;BME280;17137;51.494;-0.262;2023-07-13T00:52:44;50075.20;;;-145.72;75.60
28648;BME280;17137;51.494;-0.262;2023-07-13T00:53:15;50083.83;;;-145.72;75.73
28648;BME280;17137;51.494;-0.262;2023-07-13T00:53:45;50086.54;;;-145.72;75.93
28648;BME280;17137;51.494;-0.262;2023-07-13T00:54:20;50089.63;;;-145.72;75.66
28648;BME280;17137;51.494;-0.262;2023-07-13T00:54:52;50093.20;;;-145.72;75.73
28648;BME280;17137;51.494;-0.262;2023-07-13T00:55:23;50089.87;;;-145.72;75.65
28648;BME280;17137;51.494;-0.262;2023-07-13T00:55:55;50092.09;;;-145.72;75.60
28648;BME280;17137;51.494;-0.262;2023-07-13T00:56:27;50097.02;;;-145.72;75.35
28648;BME280;17137;51.494;-0.262;2023-07-13T00:57:00;50088.15;;;-145.72;75.31
28648;BME280;17137;51.494;-0.262;2023-07-13T00:57:31;50087.16;;;-145.72;75.02
28648;BME280;17137;51.494;-0.262;2023-07-13T00:58:02;50074.59;;;-145.72;74.82
28648;BME280;17137;51.494;-0.262;2023-07-13T00:58:33;50080.01;;;-145.72;74.68
28648;BME280;17137;51.494;-0.262;2023-07-13T00:59:07;50082.35;;;-145.72;74.54
28648;BME280;17137;51.494;-0.262;2023-07-13T00:59:41;50074.46;;;-145.72;74.19
28648;BME280;17137;51.494;-0.262;2023-07-13T01:00:13;50087.16;;;-145.72;74.31
28648;BME280;17137;51.494;-0.262;2023-07-13T01:00:43;50085.19;;;-145.72;75.03
28648;BME280;17137;51.494;-0.262;2023-07-13T01:01:14;50088.64;;;-145.72;75.20
28648;BME280;17137;51.494;-0.262;2023-07-13T01:01:45;50090.37;;;-145.72;75.17
28648;BME280;17137;51.494;-0.262;2023-07-13T01:02:16;50081.00;;;-145.72;74.92
28648;BME280;17137;51.494;-0.262;2023-07-13T01:02:46;50083.09;;;-145.72;74.93
28648;BME280;17137;51.494;-0.262;2023-07-13T01:03:18;50083.34;;;-145.72;74.90
28648;BME280;17137;51.494;-0.262;2023-07-13T01:03:49;50082.85;;;-145.72;75.27
28648;BME280;17137;51.494;-0.262;2023-07-13T01:04:19;50084.33;;;-145.72;75.24
28648;BME280;17137;51.494;-0.262;2023-07-13T01:04:50;50079.15;;;-145.72;75.06
28648;BME280;17137;51.494;-0.262;2023-07-13T01:05:21;50078.66;;;-145.72;74.92
28648;BME280;17137;51.494;-0.262;2023-07-13T01:05:52;50085.93;;;-145.72;74.80
28648;BME280;17137;51.494;-0.262;2023-07-13T01:06:23;50083.83;;;-145.72;74.80
28648;BME280;17137;51.494;-0.262;2023-07-13T01:06:53;50088.89;;;-145.72;74.80
28648;BME280;17137;51.494;-0.262;2023-07-13T01:07:24;50094.93;;;-145.72;75.01
28648;BME280;17137;51.494;-0.262;2023-07-13T01:07:55;50092.21;;;-145.72;75.05
28648;BME280;17137;51.494;-0.262;2023-07-13T01:08:25;50084.45;;;-145.72;75.02
28648;BME280;17137;51.494;-0.262;2023-07-13T01:08:57;50074.71;;;-145.72;74.88
28648;BME280;17137;51.494;-0.262;2023-07-13T01:09:28;50083.83;;;-145.72;74.84
28648;BME280;17137;51.494;-0.262;2023-07-13T01:09:58;50094.80;;;-145.72;75.61
28648;BME280;17137;51.494;-0.262;2023-07-13T01:10:29;50092.71;;;-145.72;75.76
28648;BME280;17137;51.494;-0.262;2023-07-13T01:10:59;50098.13;;;-145.72;75.77
28648;BME280;17137;51.494;-0.262;2023-07-13T01:11:29;50095.79;;;-145.72;75.73
28648;BME280;17137;51.494;-0.262;2023-07-13T01:12:01;50089.01;;;-145.72;75.73
28648;BME280;17137;51.494;-0.262;2023-07-13T01:12:31;50089.63;;;-145.72;75.75
28648;BME280;17137;51.494;-0.262;2023-07-13T01:13:01;50094.31;;;-145.72;76.27
28648;BME280;17137;51.494;-0.262;2023-07-13T01:13:31;50090.00;;;-145.72;76.51
28648;BME280;17137;51.494;-0.262;2023-07-13T01:14:02;50094.56;;;-145.72;76.85
28648;BME280;17137;51.494;-0.262;2023-07-13T01:14:32;50092.09;;;-145.72;76.77
28648;BME280;17137;51.494;-0.262;2023-07-13T01:15:04;50089.01;;;-145.72;76.79
28648;BME280;17137;51.494;-0.262;2023-07-13T01:15:37;50096.65;;;-145.72;77.26
28648;BME280;17137;51.494;-0.262;2023-07-13T01:16:17;50084.57;;;-145.72;77.00
28648;BME280;17137;51.494;-0.262;2023-07-13T01:16:50;50095.54;;;-145.72;77.51
28648;BME280;17137;51.494;-0.262;2023-07-13T01:17:20;50096.90;;;-145.72;77.47
28648;BME280;17137;51.494;-0.262;2023-07-13T01:17:51;50104.54;;;-145.72;77.82
28648;BME280;17137;51.494;-0.262;2023-07-13T01:18:25;50108.48;;;-145.72;77.95
28648;BME280;17137;51.494;-0.262;2023-07-13T01:18:57;50099.98;;;-145.72;78.07
28648;BME280;17137;51.494;-0.262;2023-07-13T01:19:33;50093.45;;;-145.72;77.89
28648;BME280;17137;51.494;-0.262;2023-07-13T01:20:06;50099.49;;;-145.72;77.87
28648;BME280;17137;51.494;-0.262;2023-07-13T01:20:37;50089.50;;;-145.72;77.91
28648;BME280;17137;51.494;-0.262;2023-07-13T01:21:08;50091.72;;;-145.72;77.98
28648;BME280;17137;51.494;-0.262;2023-07-13T01:21:38;50088.89;;;-145.72;78.06
28648;BME280;17137;51.494;-0.262;2023-07-13T01:22:10;50096.41;;;-145.72;77.99
28648;BME280;17137;51.494;-0.262;2023-07-13T01:22:41;50089.26;;;-145.72;77.88
28648;BME280;17137;51.494;-0.262;2023-07-13T01:23:11;50080.63;;;-145.72;77.59
28648;BME280;17137;51.494;-0.262;2023-07-13T01:23:42;50090.49;;;-145.72;77.70
28648;BME280;17137;51.494;-0.262;2023-07-13T01:24:12;50090.49;;;-145.72;77.64
28648;BME280;17137;51.494;-0.262;2023-07-13T01:24:44;50090.37;;;-145.72;77.69
28648;BME280;17137;51.494;-0.262;2023-07-13T01:25:15;50088.89;;;-145.72;77.64
28648;BME280;17137;51.494;-0.262;2023-07-13T01:25:46;50092.95;;;-145.72;77.73
28648;BME280;17137;51.494;-0.262;2023-07-13T01:26:16;50091.97;;;-145.72;77.71
28648;BME280;17137;51.494;-0.262;2023-07-13T01:26:47;50095.79;;;-145.72;78.11
28648;BME280;17137;51.494;-0.262;2023-07-13T01:27:21;50093.32;;;-145.72;77.86
28648;BME280;17137;51.494;-0.262;2023-07-13T01:27:51;50088.76;;;-145.72;77.88
28648;BME280;17137;51.494;-0.262;2023-07-13T01:28:23;50086.67;;;-145.72;77.76
28648;BME280;17137;51.494;-0.262;2023-07-13T01:28:54;50093.57;;;-145.72;77.88
28648;BME280;17137;51.494;-0.262;2023-07-13T01:29:24;50095.30;;;-145.72;77.83
28648;BME280;17137;51.494;-0.262;2023-07-13T01:29:54;50094.43;;;-145.72;78.12
28648;BME280;17137;51.494;-0.262;2023-07-13T01:30:25;50100.97;;;-145.72;78.28
28648;BME280;17137;51.494;-0.262;2023-07-13T01:30:57;50094.80;;;-145.72;78.41
28648;BME280;17137;51.494;-0.262;2023-07-13T01:31:28;50080.87;;;-145.72;78.23
28648;BME280;17137;51.494;-0.262;2023-07-13T01:31:58;50097.64;;;-145.72;78.18
28648;BME280;17137;51.494;-0.262;2023-07-13T01:32:29;50104.05;;;-145.72;78.35
28648;BME280;17137;51.494;-0.262;2023-07-13T01:32:59;50107.25;;;-145.72;78.42
28648;BME280;17137;51.494;-0.262;2023-07-13T01:33:30;50097.02;;;-145.72;78.51
28648;BME280;17137;51.494;-0.262;2023-07-13T01:34:00;50097.88;;;-145.72;78.83
28648;BME280;17137;51.494;-0.262;2023-07-13T01:34:30;50100.60;;;-145.72;79.27
28648;BME280;17137;51.494;-0.262;2023-07-13T01:35:01;50105.28;;;-145.72;79.17
28648;BME280;17137;51.494;-0.262;2023-07-13T01:35:31;50110.70;;;-145.72;80.24
28648;BME280;17137;51.494;-0.262;2023-07-13T01:36:01;50110.33;;;-145.72;80.17
28648;BME280;17137;51.494;-0.262;2023-07-13T01:36:32;50105.16;;;-145.72;79.99
28648;BME280;17137;51.494;-0.262;2023-07-13T01:37:02;50109.96;;;-145.72;80.03
28648;BME280;17137;51.494;-0.262;2023-07-13T01:37:33;50104.79;;;-145.72;80.27
28648;BME280;17137;51.494;-0.262;2023-07-13T01:38:05;50115.63;;;-145.72;80.83
28648;BME280;17137;51.494;-0.262;2023-07-13T01:38:36;50119.58;;;-145.72;81.39
28648;BME280;17137;51.494;-0.262;2023-07-13T01:39:06;50125.99;;;-145.72;82.00
28648;BME280;17137;51.494;-0.262;2023-07-13T01:39:36;50123.65;;;-145.72;81.67
28648;BME280;17137;51.494;-0.262;2023-07-13T01:40:08;50123.03;;;-145.72;81.49
28648;BME280;17137;51.494;-0.262;2023-07-13T01:40:39;50117.85;;;-145.72;81.70
28648;BME280;17137;51.494;-0.262;2023-07-13T01:41:09;50112.68;;;-145.72;81.58
28648;BME280;17137;51.494;-0.262;2023-07-13T01:41:39;50129.44;;;-145.72;81.78
28648;BME280;17137;51.494;-0.262;2023-07-13T01:42:10;50107.99;;;-145.72;81.63
28648;BME280;17137;51.494;-0.262;2023-07-13T01:42:41;50106.88;;;-145.72;81.59
28648;BME280;17137;51.494;-0.262;2023-07-13T01:43:12;50114.52;;;-145.72;81.54
28648;BME280;17137;51.494;-0.262;2023-07-13T01:43:42;50121.18;;;-145.72;81.67
28648;BME280;17137;51.494;-0.262;2023-07-13T01:44:13;50117.11;;;-145.72;81.61
28648;BME280;17137;51.494;-0.262;2023-07-13T01:44:43;50116.74;;;-145.72;81.42
28648;BME280;17137;51.494;-0.262;2023-07-13T01:45:13;50123.03;;;-145.72;81.44
28648;BME280;17137;51.494;-0.262;2023-07-13T01:45:44;50130.18;;;-145.72;81.81
28648;BME280;17137;51.494;-0.262;2023-07-13T01:46:14;50111.94;;;-145.72;81.48
28648;BME280;17137;51.494;-0.262;2023-07-13T01:46:44;50106.27;;;-145.72;81.10
28648;BME280;17137;51.494;-0.262;2023-07-13T01:47:15;50110.21;;;-145.72;80.97
28648;BME280;17137;51.494;-0.262;2023-07-13T01:47:45;50108.73;;;-145.72;81.09
28648;BME280;17137;51.494;-0.262;2023-07-13T01:48:15;50117.36;;;-145.72;81.22
28648;BME280;17137;51.494;-0.262;2023-07-13T01:48:46;50123.77;;;-145.72;81.32
28648;BME280;17137;51.494;-0.262;2023-07-13T01:49:16;50118.59;;;-145.72;81.31
28648;BME280;17137;51.494;-0.262;2023-07-13T01:49:46;50107.25;;;-145.72;81.21
28648;BME280;17137;51.494;-0.262;2023-07-13T01:50:17;50119.46;;;-145.72;81.09
28648;BME280;17137;51.494;-0.262;2023-07-13T01:50:47;50119.09;;;-145.72;81.41
28648;BME280;17137;51.494;-0.262;2023-07-13T01:51:19;50120.44;;;-145.72;81.68
28648;BME280;17137;51.494;-0.262;2023-07-13T01:51:49;50119.95;;;-145.72;81.66
28648;BME280;17137;51.494;-0.262;2023-07-13T01:52:20;50117.85;;;-145.72;81.73
28648;BME280;17137;51.494;-0.262;2023-07-13T01:52:50;50129.93;;;-145.72;82.07
28648;BME280;17137;51.494;-0.262;2023-07-13T01:53:21;50126.85;;;-145.72;81.85
28648;BME280;17137;51.494;-0.262;2023-07-13T01:53:51;50115.14;;;-145.72;81.87
28648;BME280;17137;51.494;-0.262;2023-07-13T01:54:21;50125.13;;;-145.72;81.71
28648;BME280;17137;51.494;-0.262;2023-07-13T01:54:51;50114.15;;;-145.72;81.73
28648;BME280;17137;51.494;-0.262;2023-07-13T01:55:22;50118.84;;;-145.72;81.39
28648;BME280;17137;51.494;-0.262;2023-07-13T01:55:52;50123.40;;;-145.72;81.30
28648;BME280;17137;51.494;-0.262;2023-07-13T01:56:22;50117.85;;;-145.72;81.17
28648;BME280;17137;51.494;-0.262;2023-07-13T01:56:53;50116.99;;;-145.72;81.75
28648;BME280;17137;51.494;-0.262;2023-07-13T01:57:23;50119.58;;;-145.72;81.90
28648;BME280;17137;51.494;-0.262;2023-07-13T01:57:53;50114.89;;;-145.72;81.67
28648;BME280;17137;51.494;-0.262;2023-07-13T01:58:24;50120.07;;;-145.72;81.84
28648;BME280;17137;51.494;-0.262;2023-07-13T01:58:54;50118.35;;;-145.72;81.84
28648;BME280;17137;51.494;-0.262;2023-07-13T01:59:24;50111.57;;;-145.72;81.87
28648;BME280;17137;51.494;-0.262;2023-07-13T01:59:55;50114.15;;;-145.72;81.74
28648;BME280;17137;51.494;-0.262;2023-07-13T02:00:25;50120.56;;;-145.72;81.71
28648;BME280;17137;51.494;-0.262;2023-07-13T02:00:55;50117.73;;;-145.72;81.72
28648;BME280;17137;51.494;-0.262;2023-07-13T02:01:26;50120.32;;;-145.72;81.66
28648;BME280;17137;51.494;-0.262;2023-07-13T02:01:56;50121.92;;;-145.72;81.56
28648;BME280;17137;51.494;-0.262;2023-07-13T02:02:26;50119.33;;;-145.72;81.52
28648;BME280;17137;51.494;-0.262;2023-07-13T02:02:57;50111.07;;;-145.72;81.68
28648;BME280;17137;51.494;-0.262;2023-07-13T02:03:27;50120.07;;;-145.72;81.58
28648;BME280;17137;51.494;-0.262;2023-07-13T02:03:57;50115.26;;;-145.72;81.45
28648;BME280;17137;51.494;-0.262;2023-07-13T02:04:28;50120.81;;;-145.72;81.33
28648;BME280;17137;51.494;-0.262;2023-07-13T02:04:58;50120.44;;;-145.72;81.35
28648;BME280;17137;51.494;-0.262;2023-07-13T02:05:28;50128.58;;;-145.72;81.70
28648;BME280;17137;51.494;-0.262;2023-07-13T02:05:59;50121.92;;;-145.72;81.79
28648;BME280;17137;51.494;-0.262;2023-07-13T02:06:29;50129.19;;;-145.72;82.06
28648;BME280;17137;51.494;-0.262;2023-07-13T02:06:59;50122.17;;;-145.72;81.88
28648;BME280;17137;51.494;-0.262;2023-07-13T02:07:29;50121.92;;;-145.72;81.86
28648;BME280;17137;51.494;-0.262;2023-07-13T02:08:00;50118.35;;;-145.72;82.06
28648;BME280;17137;51.494;-0.262;2023-07-13T02:08:31;50130.55;;;-145.72;81.98
28648;BME280;17137;51.494;-0.262;2023-07-13T02:09:02;50121.43;;;-145.72;81.98
28648;BME280;17137;51.494;-0.262;2023-07-13T02:09:33;50117.48;;;-145.72;81.94
28648;BME280;17137;51.494;-0.262;2023-07-13T02:10:04;50128.95;;;-145.72;82.05
28648;BME280;17137;51.494;-0.262;2023-07-13T02:10:34;50114.28;;;-145.72;82.23
28648;BME280;17137;51.494;-0.262;2023-07-13T02:11:05;50124.26;;;-145.72;82.11
28648;BME280;17137;51.494;-0.262;2023-07-13T02:11:35;50132.64;;;-145.72;82.14
28648;BME280;17137;51.494;-0.262;2023-07-13T02:12:06;50121.30;;;-145.72;82.12
28648;BME280;17137;51.494;-0.262;2023-07-13T02:12:37;50125.62;;;-145.72;82.07
28648;BME280;17137;51.494;-0.262;2023-07-13T02:13:08;50130.80;;;-145.72;81.92
28648;BME280;17137;51.494;-0.262;2023-07-13T02:13:38;50119.33;;;-145.72;82.05
28648;BME280;17137;51.494;-0.262;2023-07-13T02:14:09;50127.71;;;-145.72;82.05
28648;BME280;17137;51.494;-0.262;2023-07-13T02:14:39;50114.89;;;-145.72;81.86
28648;BME280;17137;51.494;-0.262;2023-07-13T02:15:10;50112.92;;;-145.72;81.81
28648;BME280;17137;51.494;-0.262;2023-07-13T02:15:41;50134.25;;;-145.72;81.97
28648;BME280;17137;51.494;-0.262;2023-07-13T02:16:11;50116.37;;;-145.72;82.13
28648;BME280;17137;51.494;-0.262;2023-07-13T02:16:41;50130.06;;;-145.72;82.28
28648;BME280;17137;51.494;-0.262;2023-07-13T02:17:12;50125.86;;;-145.72;82.42
28648;BME280;17137;51.494;-0.262;2023-07-13T02:17:43;50142.14;;;-145.72;82.95
28648;BME280;17137;51.494;-0.262;2023-07-13T02:18:13;50136.10;;;-145.72;83.29
28648;BME280;17137;51.494;-0.262;2023-07-13T02:18:43;50150.27;;;-145.72;83.18
28648;BME280;17137;51.494;-0.262;2023-07-13T02:19:14;50140.53;;;-145.72;83.49
28648;BME280;17137;51.494;-0.262;2023-07-13T02:19:44;50137.08;;;-145.72;84.17
28648;BME280;17137;51.494;-0.262;2023-07-13T02:20:14;50143.86;;;-145.72;84.07
28648;BME280;17137;51.494;-0.262;2023-07-13T02:20:45;50158.53;;;-145.72;84.69
28648;BME280;17137;51.494;-0.262;2023-07-13T02:21:15;50134.99;;;-145.72;84.55
28648;BME280;17137;51.494;-0.262;2023-07-13T02:21:45;50137.82;;;-145.72;84.18
28648;BME280;17137;51.494;-0.262;2023-07-13T02:22:15;50138.07;;;-145.72;83.81
28648;BME280;17137;51.494;-0.262;2023-07-13T02:22:46;50133.26;;;-145.72;83.42
28648;BME280;17137;51.494;-0.262;2023-07-13T02:23:16;50133.01;;;-145.72;83.51
28648;BME280;17137;51.494;-0.262;2023-07-13T02:23:46;50118.47;;;-145.72;83.39
28648;BME280;17137;51.494;-0.262;2023-07-13T02:24:17;50121.92;;;-145.72;83.25
28648;BME280;17137;51.494;-0.262;2023-07-13T02:24:47;50133.14;;;-145.72;83.74
28648;BME280;17137;51.494;-0.262;2023-07-13T02:25:18;50131.17;;;-145.72;83.85
28648;BME280;17137;51.494;-0.262;2023-07-13T02:25:48;50144.72;;;-145.72;83.97
28648;BME280;17137;51.494;-0.262;2023-07-13T02:26:19;50139.79;;;-145.72;84.03
28648;BME280;17137;51.494;-0.262;2023-07-13T02:26:49;50141.40;;;-145.72;84.03
28648;BME280;17137;51.494;-0.262;2023-07-13T02:27:19;50134.00;;;-145.72;84.00
28648;BME280;17137;51.494;-0.262;2023-07-13T02:27:50;50140.78;;;-145.72;83.78
28648;BME280;17137;51.494;-0.262;2023-07-13T02:28:20;50137.33;;;-145.72;83.67
28648;BME280;17137;51.494;-0.262;2023-07-13T02:28:50;50134.37;;;-145.72;83.75
28648;BME280;17137;51.494;-0.262;2023-07-13T02:29:21;50139.79;;;-145.72;83.65
28648;BME280;17137;51.494;-0.262;2023-07-13T02:29:51;50141.27;;;-145.72;83.65
28648;BME280;17137;51.494;-0.262;2023-07-13T02:30:22;50133.88;;;-145.72;84.11
28648;BME280;17137;51.494;-0.262;2023-07-13T02:30:52;50143.49;;;-145.72;84.12
28648;BME280;17137;51.494;-0.262;2023-07-13T02:31:22;50137.94;;;-145.72;83.85
28648;BME280;17137;51.494;-0.262;2023-07-13T02:31:53;50139.55;;;-145.72;83.83
28648;BME280;17137;51.494;-0.262;2023-07-13T02:32:23;50138.56;;;-145.72;83.86
28648;BME280;17137;51.494;-0.262;2023-07-13T02:32:53;50132.40;;;-145.72;83.99
28648;BME280;17137;51.494;-0.262;2023-07-13T02:33:29;50139.92;;;-145.72;84.27
28648;BME280;17137;51.494;-0.262;2023-07-13T02:33:59;50140.66;;;-145.72;84.14
28648;BME280;17137;51.494;-0.262;2023-07-13T02:34:29;50145.96;;;-145.72;84.24
28648;BME280;17137;51.494;-0.262;2023-07-13T02:34:59;50129.32;;;-145.72;84.08
28648;BME280;17137;51.494;-0.262;2023-07-13T02:35:30;50134.74;;;-145.72;84.09
28648;BME280;17137;51.494;-0.262;2023-07-13T02:36:00;50135.73;;;-145.72;84.21
28648;BME280;17137;51.494;-0.262;2023-07-13T02:36:32;50143.86;;;-145.72;84.18
28648;BME280;17137;51.494;-0.262;2023-07-13T02:37:03;50136.47;;;-145.72;84.12
28648;BME280;17137;51.494;-0.262;2023-07-13T02:37:33;50136.10;;;-145.72;84.28
28648;BME280;17137;51.494;-0.262;2023-07-13T02:38:04;50136.59;;;-145.72;84.14
28648;BME280;17137;51.494;-0.262;2023-07-13T02:38:39;50133.63;;;-145.72;83.88